createdAt,value
2017-06-08T00:04:04.470Z,0
2017-06-08T00:04:44.973Z,0
2017-06-08T00:05:25.511Z,0
2017-06-08T00:06:06.053Z,0
2017-06-08T00:06:46.592Z,0
2017-06-08T00:07:27.132Z,0
2017-06-08T00:08:07.666Z,0
2017-06-08T00:08:48.203Z,0
2017-06-08T00:09:28.740Z,0
2017-06-08T00:10:09.282Z,0
2017-06-08T00:10:49.822Z,0
2017-06-08T00:11:30.364Z,0
2017-06-08T00:12:10.914Z,0
2017-06-08T00:12:51.456Z,0
2017-06-08T00:13:31.997Z,0
2017-06-08T00:14:12.531Z,0
2017-06-08T00:14:53.066Z,0
2017-06-08T00:15:33.605Z,0
2017-06-08T00:16:14.140Z,0
2017-06-08T00:16:54.680Z,0
2017-06-08T00:17:35.220Z,0
2017-06-08T00:18:15.768Z,0
2017-06-08T00:18:56.315Z,0
2017-06-08T00:19:36.855Z,0
2017-06-08T00:20:17.397Z,0
2017-06-08T00:20:57.937Z,0
2017-06-08T00:21:38.472Z,0
2017-06-08T00:22:19.014Z,0
2017-06-08T00:22:59.555Z,0
2017-06-08T00:23:40.102Z,0
2017-06-08T00:24:20.643Z,0
2017-06-08T00:25:01.187Z,0
2017-06-08T00:25:41.732Z,0
2017-06-08T00:26:22.270Z,0
2017-06-08T00:27:02.825Z,0
2017-06-08T00:27:43.368Z,0
2017-06-08T00:28:23.915Z,0
2017-06-08T00:29:04.456Z,0
2017-06-08T00:29:45.067Z,0
2017-06-08T00:30:25.606Z,0
2017-06-08T00:31:06.148Z,0
2017-06-08T00:31:46.691Z,0
2017-06-08T00:32:27.240Z,0
2017-06-08T00:33:07.784Z,0
2017-06-08T00:33:48.322Z,0
2017-06-08T00:34:28.866Z,0
2017-06-08T00:35:09.402Z,0
2017-06-08T00:35:49.932Z,0
2017-06-08T00:36:30.473Z,0
2017-06-08T00:37:11.022Z,0
2017-06-08T00:37:51.561Z,0
2017-06-08T00:38:32.107Z,0
2017-06-08T00:39:12.658Z,0
2017-06-08T00:39:53.208Z,0
2017-06-08T00:40:33.763Z,0
2017-06-08T00:41:14.312Z,0
2017-06-08T00:41:54.865Z,0
2017-06-08T00:42:35.427Z,0
2017-06-08T00:43:15.974Z,0
2017-06-08T00:43:56.516Z,0
2017-06-08T00:44:37.065Z,0
2017-06-08T00:45:17.616Z,0
2017-06-08T00:45:58.175Z,0
2017-06-08T00:46:38.722Z,0
2017-06-08T00:47:19.261Z,0
2017-06-08T00:47:59.812Z,0
2017-06-08T00:48:40.340Z,0
2017-06-08T00:49:20.894Z,0
2017-06-08T00:50:01.408Z,0
2017-06-08T00:50:41.947Z,0
2017-06-08T00:51:22.480Z,0
2017-06-08T00:52:03.029Z,0
2017-06-08T00:52:43.565Z,0
2017-06-08T00:53:24.115Z,0
2017-06-08T00:54:04.653Z,0
2017-06-08T00:54:45.196Z,0
2017-06-08T00:55:25.745Z,0
2017-06-08T00:56:06.275Z,0
2017-06-08T00:56:46.811Z,0
2017-06-08T00:57:27.358Z,0
2017-06-08T00:58:07.898Z,0
2017-06-08T00:58:48.437Z,0
2017-06-08T00:59:28.982Z,0
2017-06-08T01:00:09.537Z,0
2017-06-08T01:00:50.077Z,0
2017-06-08T01:01:30.620Z,0
2017-06-08T01:02:11.155Z,0
2017-06-08T01:02:51.696Z,0
2017-06-08T01:03:32.231Z,0
2017-06-08T01:04:12.781Z,0
2017-06-08T01:04:53.315Z,0
2017-06-08T01:05:33.862Z,0
2017-06-08T01:06:14.408Z,0
2017-06-08T01:06:54.949Z,0
2017-06-08T01:07:35.486Z,0
2017-06-08T01:08:16.029Z,0
2017-06-08T01:08:56.572Z,0
2017-06-08T01:09:37.113Z,0
2017-06-08T01:10:17.664Z,0
2017-06-08T01:10:58.214Z,0
2017-06-08T01:11:38.762Z,0
2017-06-08T01:12:19.308Z,0
2017-06-08T01:12:59.863Z,0
2017-06-08T01:13:40.403Z,0
2017-06-08T01:14:20.941Z,0
2017-06-08T01:15:01.483Z,0
2017-06-08T01:15:42.022Z,0
2017-06-08T01:16:22.563Z,0
2017-06-08T01:17:03.101Z,0
2017-06-08T01:17:43.643Z,0
2017-06-08T01:18:24.172Z,0
2017-06-08T01:19:04.716Z,0
2017-06-08T01:19:45.255Z,0
2017-06-08T01:20:25.793Z,0
2017-06-08T01:21:06.331Z,0
2017-06-08T01:21:46.866Z,0
2017-06-08T01:22:27.403Z,0
2017-06-08T01:23:07.943Z,0
2017-06-08T01:23:48.474Z,0
2017-06-08T01:24:29.015Z,0
2017-06-08T01:25:09.548Z,0
2017-06-08T01:25:50.088Z,0
2017-06-08T01:26:30.639Z,0
2017-06-08T01:27:11.175Z,0
2017-06-08T01:27:51.717Z,0
2017-06-08T01:28:32.262Z,0
2017-06-08T01:29:12.809Z,0
2017-06-08T01:29:53.358Z,0
2017-06-08T01:30:33.906Z,0
2017-06-08T01:31:14.449Z,0
2017-06-08T01:31:54.988Z,0
2017-06-08T01:32:35.533Z,0
2017-06-08T01:33:16.078Z,0
2017-06-08T01:33:56.608Z,0
2017-06-08T01:34:37.153Z,0
2017-06-08T01:35:17.698Z,0
2017-06-08T01:35:58.242Z,0
2017-06-08T01:36:38.789Z,0
2017-06-08T01:37:19.328Z,0
2017-06-08T01:37:59.877Z,0
2017-06-08T01:38:40.416Z,0
2017-06-08T01:39:20.953Z,0
2017-06-08T01:40:01.535Z,0
2017-06-08T01:40:42.082Z,0
2017-06-08T01:41:22.614Z,0
2017-06-08T01:42:03.164Z,0
2017-06-08T01:42:43.706Z,0
2017-06-08T01:43:24.255Z,0
2017-06-08T01:44:04.795Z,0
2017-06-08T01:44:45.346Z,0
2017-06-08T01:45:25.895Z,0
2017-06-08T01:46:06.432Z,0
2017-06-08T01:46:46.971Z,0
2017-06-08T01:47:27.549Z,0
2017-06-08T01:48:08.098Z,0
2017-06-08T01:48:48.638Z,0
2017-06-08T01:49:29.177Z,0
2017-06-08T01:50:09.719Z,0
2017-06-08T01:50:50.267Z,0
2017-06-08T01:51:30.805Z,0
2017-06-08T01:52:11.346Z,0
2017-06-08T01:52:51.887Z,0
2017-06-08T01:53:32.437Z,0
2017-06-08T01:54:12.980Z,0
2017-06-08T01:54:53.513Z,0
2017-06-08T01:55:34.030Z,0
2017-06-08T01:56:14.598Z,0
2017-06-08T01:56:55.111Z,0
2017-06-08T01:57:35.646Z,0
2017-06-08T01:58:16.192Z,0
2017-06-08T01:58:56.739Z,0
2017-06-08T01:59:37.283Z,0
2017-06-08T02:00:17.829Z,0
2017-06-08T02:00:58.366Z,0
2017-06-08T02:01:38.910Z,0
2017-06-08T02:02:19.438Z,0
2017-06-08T02:02:59.971Z,0
2017-06-08T02:03:40.504Z,0
2017-06-08T02:04:21.051Z,0
2017-06-08T02:05:01.595Z,0
2017-06-08T02:05:42.145Z,0
2017-06-08T02:06:22.690Z,0
2017-06-08T02:07:03.239Z,0
2017-06-08T02:07:43.771Z,0
2017-06-08T02:08:24.315Z,0
2017-06-08T02:09:04.859Z,0
2017-06-08T02:09:45.395Z,0
2017-06-08T02:10:25.937Z,0
2017-06-08T02:11:06.485Z,0
2017-06-08T02:11:47.067Z,0
2017-06-08T02:12:27.599Z,0
2017-06-08T02:13:08.171Z,0
2017-06-08T02:13:48.689Z,0
2017-06-08T02:14:29.234Z,0
2017-06-08T02:15:09.773Z,0
2017-06-08T02:15:50.312Z,0
2017-06-08T02:16:30.855Z,0
2017-06-08T02:17:11.396Z,0
2017-06-08T02:17:51.935Z,0
2017-06-08T02:18:32.477Z,0
2017-06-08T02:19:13.010Z,0
2017-06-08T02:19:53.537Z,0
2017-06-08T02:20:34.074Z,0
2017-06-08T02:21:14.608Z,0
2017-06-08T02:21:55.160Z,0
2017-06-08T02:22:35.708Z,0
2017-06-08T02:23:16.256Z,0
2017-06-08T02:23:56.790Z,0
2017-06-08T02:24:37.338Z,0
2017-06-08T02:25:17.881Z,0
2017-06-08T02:25:58.430Z,0
2017-06-08T02:26:38.978Z,0
2017-06-08T02:27:19.517Z,0
2017-06-08T02:28:00.051Z,0
2017-06-08T02:28:40.582Z,0
2017-06-08T02:29:21.124Z,0
2017-06-08T02:30:01.671Z,0
2017-06-08T02:30:42.220Z,0
2017-06-08T02:31:22.767Z,0
2017-06-08T02:32:03.315Z,0
2017-06-08T02:32:43.842Z,0
2017-06-08T02:33:24.369Z,0
2017-06-08T02:34:04.962Z,0
2017-06-08T02:34:45.514Z,0
2017-06-08T02:35:26.061Z,0
2017-06-08T02:36:06.604Z,0
2017-06-08T02:36:47.147Z,0
2017-06-08T02:37:27.677Z,0
2017-06-08T02:38:08.213Z,0
2017-06-08T02:38:48.766Z,0
2017-06-08T02:39:29.307Z,0
2017-06-08T02:40:09.848Z,0
2017-06-08T02:40:50.427Z,0
2017-06-08T02:41:30.940Z,0
2017-06-08T02:42:11.489Z,0
2017-06-08T02:42:52.036Z,0
2017-06-08T02:43:32.586Z,0
2017-06-08T02:44:13.138Z,0
2017-06-08T02:44:53.682Z,0
2017-06-08T02:45:34.222Z,0
2017-06-08T02:46:14.762Z,0
2017-06-08T02:46:55.315Z,0
2017-06-08T02:47:35.865Z,0
2017-06-08T02:48:16.409Z,0
2017-06-08T02:48:56.945Z,0
2017-06-08T02:49:37.482Z,0
2017-06-08T02:50:18.033Z,0
2017-06-08T02:50:58.576Z,0
2017-06-08T02:51:39.108Z,0
2017-06-08T02:52:19.654Z,0
2017-06-08T02:53:00.199Z,0
2017-06-08T02:53:40.743Z,4
2017-06-08T02:54:21.282Z,4
2017-06-08T02:55:01.823Z,4
2017-06-08T02:55:42.372Z,4
2017-06-08T02:56:22.957Z,4
2017-06-08T02:57:03.514Z,0
2017-06-08T02:57:44.064Z,4
2017-06-08T02:58:24.609Z,4
2017-06-08T02:59:05.154Z,4
2017-06-08T02:59:45.702Z,4
2017-06-08T03:00:26.232Z,4
2017-06-08T03:01:06.780Z,4
2017-06-08T03:01:47.307Z,8
2017-06-08T03:02:27.843Z,8
2017-06-08T03:03:08.410Z,4
2017-06-08T03:03:48.948Z,4
2017-06-08T03:04:29.497Z,4
2017-06-08T03:05:10.056Z,8
2017-06-08T03:05:50.599Z,8
2017-06-08T03:06:31.139Z,8
2017-06-08T03:07:11.675Z,8
2017-06-08T03:07:52.216Z,8
2017-06-08T03:08:32.770Z,8
2017-06-08T03:09:13.328Z,8
2017-06-08T03:09:53.873Z,8
2017-06-08T03:10:34.425Z,8
2017-06-08T03:11:14.971Z,12
2017-06-08T03:11:55.515Z,12
2017-06-08T03:12:36.053Z,12
2017-06-08T03:13:16.596Z,12
2017-06-08T03:13:57.142Z,12
2017-06-08T03:14:37.698Z,12
2017-06-08T03:15:18.243Z,12
2017-06-08T03:15:58.795Z,16
2017-06-08T03:16:39.346Z,16
2017-06-08T03:17:19.897Z,20
2017-06-08T03:18:00.451Z,16
2017-06-08T03:18:40.996Z,20
2017-06-08T03:19:21.542Z,20
2017-06-08T03:20:02.078Z,24
2017-06-08T03:20:42.625Z,20
2017-06-08T03:21:23.168Z,20
2017-06-08T03:22:03.714Z,24
2017-06-08T03:22:44.247Z,24
2017-06-08T03:23:24.777Z,28
2017-06-08T03:24:05.327Z,28
2017-06-08T03:24:45.870Z,28
2017-06-08T03:25:26.412Z,28
2017-06-08T03:26:06.959Z,28
2017-06-08T03:26:47.496Z,32
2017-06-08T03:27:28.037Z,28
2017-06-08T03:28:08.617Z,32
2017-06-08T03:28:49.158Z,32
2017-06-08T03:29:29.684Z,32
2017-06-08T03:30:10.227Z,36
2017-06-08T03:30:50.762Z,36
2017-06-08T03:31:31.292Z,36
2017-06-08T03:32:11.844Z,40
2017-06-08T03:32:52.387Z,40
2017-06-08T03:33:32.927Z,44
2017-06-08T03:34:13.623Z,44
2017-06-08T03:34:54.094Z,44
2017-06-08T03:35:34.644Z,44
2017-06-08T03:36:15.188Z,48
2017-06-08T03:36:55.715Z,48
2017-06-08T03:37:36.303Z,52
2017-06-08T03:38:16.846Z,52
2017-06-08T03:38:57.401Z,60
2017-06-08T03:39:37.929Z,64
2017-06-08T03:40:18.466Z,68
2017-06-08T03:40:59.009Z,76
2017-06-08T03:41:39.550Z,80
2017-06-08T03:42:20.081Z,88
2017-06-08T03:43:00.626Z,88
2017-06-08T03:43:41.169Z,88
2017-06-08T03:44:21.702Z,92
2017-06-08T03:45:02.257Z,96
2017-06-08T03:45:42.792Z,100
2017-06-08T03:46:23.334Z,108
2017-06-08T03:47:03.954Z,112
2017-06-08T03:47:44.510Z,116
2017-06-08T03:48:25.043Z,120
2017-06-08T03:49:05.599Z,120
2017-06-08T03:49:46.307Z,128
2017-06-08T03:50:26.842Z,128
2017-06-08T03:51:07.383Z,136
2017-06-08T03:51:47.926Z,140
2017-06-08T03:52:28.511Z,144
2017-06-08T03:53:09.042Z,152
2017-06-08T03:53:49.578Z,152
2017-06-08T03:54:30.127Z,152
2017-06-08T03:55:10.666Z,152
2017-06-08T03:55:51.205Z,148
2017-06-08T03:56:31.751Z,148
2017-06-08T03:57:12.298Z,144
2017-06-08T03:57:52.844Z,148
2017-06-08T03:58:33.509Z,160
2017-06-08T03:59:14.170Z,168
2017-06-08T03:59:54.735Z,184
2017-06-08T04:00:35.705Z,196
2017-06-08T04:01:16.251Z,212
2017-06-08T04:01:56.802Z,220
2017-06-08T04:02:37.349Z,236
2017-06-08T04:03:17.900Z,240
2017-06-08T04:03:58.454Z,240
2017-06-08T04:04:39.002Z,248
2017-06-08T04:05:19.546Z,256
2017-06-08T04:06:00.095Z,264
2017-06-08T04:06:40.636Z,276
2017-06-08T04:07:21.177Z,296
2017-06-08T04:08:01.726Z,304
2017-06-08T04:08:42.250Z,320
2017-06-08T04:09:22.793Z,336
2017-06-08T04:10:03.332Z,372
2017-06-08T04:10:43.870Z,396
2017-06-08T04:11:24.409Z,420
2017-06-08T04:12:04.958Z,424
2017-06-08T04:12:45.500Z,420
2017-06-08T04:13:26.041Z,420
2017-06-08T04:14:06.589Z,428
2017-06-08T04:14:47.132Z,424
2017-06-08T04:15:27.672Z,416
2017-06-08T04:16:08.207Z,396
2017-06-08T04:16:48.749Z,380
2017-06-08T04:17:29.284Z,368
2017-06-08T04:18:09.820Z,368
2017-06-08T04:18:50.364Z,360
2017-06-08T04:19:30.909Z,352
2017-06-08T04:20:11.448Z,356
2017-06-08T04:20:51.990Z,364
2017-06-08T04:21:32.527Z,384
2017-06-08T04:22:13.062Z,416
2017-06-08T04:22:53.601Z,452
2017-06-08T04:23:34.135Z,472
2017-06-08T04:24:14.682Z,484
2017-06-08T04:24:55.222Z,492
2017-06-08T04:25:35.821Z,500
2017-06-08T04:26:16.439Z,512
2017-06-08T04:26:57.052Z,504
2017-06-08T04:27:37.642Z,508
2017-06-08T04:28:18.185Z,508
2017-06-08T04:28:58.724Z,512
2017-06-08T04:29:39.263Z,524
2017-06-08T04:30:19.805Z,544
2017-06-08T04:31:00.355Z,564
2017-06-08T04:31:40.893Z,580
2017-06-08T04:32:21.432Z,608
2017-06-08T04:33:01.971Z,656
2017-06-08T04:33:42.522Z,696
2017-06-08T04:34:23.076Z,756
2017-06-08T04:35:03.625Z,808
2017-06-08T04:35:44.163Z,844
2017-06-08T04:36:24.702Z,900
2017-06-08T04:37:05.240Z,956
2017-06-08T04:37:45.786Z,1008
2017-06-08T04:38:26.335Z,1036
2017-06-08T04:39:06.866Z,1032
2017-06-08T04:39:47.418Z,1008
2017-06-08T04:40:27.960Z,968
2017-06-08T04:41:08.517Z,936
2017-06-08T04:41:49.053Z,920
2017-06-08T04:42:29.591Z,932
2017-06-08T04:43:10.130Z,948
2017-06-08T04:43:50.679Z,956
2017-06-08T04:44:31.220Z,968
2017-06-08T04:45:11.764Z,968
2017-06-08T04:45:52.308Z,964
2017-06-08T04:46:32.844Z,956
2017-06-08T04:47:13.384Z,960
2017-06-08T04:47:53.951Z,980
2017-06-08T04:48:34.529Z,1000
2017-06-08T04:49:15.068Z,1032
2017-06-08T04:49:55.608Z,1072
2017-06-08T04:50:36.159Z,1116
2017-06-08T04:51:16.709Z,1144
2017-06-08T04:51:57.250Z,1156
2017-06-08T04:52:37.782Z,1156
2017-06-08T04:53:18.328Z,1156
2017-06-08T04:53:58.854Z,1156
2017-06-08T04:54:39.396Z,1152
2017-06-08T04:55:19.944Z,1148
2017-06-08T04:56:00.520Z,1156
2017-06-08T04:56:41.034Z,1164
2017-06-08T04:57:21.574Z,1152
2017-06-08T04:58:02.116Z,1120
2017-06-08T04:58:42.660Z,1088
2017-06-08T04:59:23.206Z,1080
2017-06-08T05:00:03.749Z,1084
2017-06-08T05:00:44.292Z,1108
2017-06-08T05:01:24.840Z,1140
2017-06-08T05:02:05.386Z,1176
2017-06-08T05:02:45.913Z,1212
2017-06-08T05:03:26.458Z,1256
2017-06-08T05:04:07.006Z,1300
2017-06-08T05:04:47.552Z,1352
2017-06-08T05:05:28.093Z,1396
2017-06-08T05:06:08.631Z,1416
2017-06-08T05:06:49.177Z,1404
2017-06-08T05:07:29.727Z,1364
2017-06-08T05:08:10.278Z,1296
2017-06-08T05:08:50.824Z,1228
2017-06-08T05:09:31.377Z,1188
2017-06-08T05:10:11.920Z,1164
2017-06-08T05:10:52.463Z,1168
2017-06-08T05:11:33.033Z,1200
2017-06-08T05:12:13.583Z,1232
2017-06-08T05:12:54.108Z,1284
2017-06-08T05:13:34.651Z,1348
2017-06-08T05:14:15.181Z,1408
2017-06-08T05:14:55.716Z,1464
2017-06-08T05:15:36.270Z,1520
2017-06-08T05:16:16.820Z,1580
2017-06-08T05:16:57.368Z,1628
2017-06-08T05:17:37.917Z,1648
2017-06-08T05:18:18.454Z,1640
2017-06-08T05:18:58.989Z,1632
2017-06-08T05:19:39.542Z,1648
2017-06-08T05:20:20.091Z,1672
2017-06-08T05:21:00.632Z,1692
2017-06-08T05:21:41.166Z,1696
2017-06-08T05:22:21.742Z,1716
2017-06-08T05:23:02.281Z,1768
2017-06-08T05:23:42.821Z,1820
2017-06-08T05:24:23.363Z,1836
2017-06-08T05:25:03.914Z,1820
2017-06-08T05:25:44.438Z,1800
2017-06-08T05:26:24.978Z,1768
2017-06-08T05:27:05.519Z,1724
2017-06-08T05:27:46.062Z,1680
2017-06-08T05:28:26.598Z,1664
2017-06-08T05:29:07.145Z,1680
2017-06-08T05:29:47.700Z,1708
2017-06-08T05:30:28.255Z,1720
2017-06-08T05:31:08.797Z,1712
2017-06-08T05:31:49.356Z,1704
2017-06-08T05:32:29.907Z,1680
2017-06-08T05:33:10.456Z,1668
2017-06-08T05:33:51.005Z,1664
2017-06-08T05:34:31.554Z,1664
2017-06-08T05:35:12.107Z,1676
2017-06-08T05:35:52.660Z,1680
2017-06-08T05:36:33.275Z,1664
2017-06-08T05:37:13.823Z,1660
2017-06-08T05:37:54.368Z,1676
2017-06-08T05:38:34.930Z,1740
2017-06-08T05:39:15.486Z,1812
2017-06-08T05:39:56.034Z,1924
2017-06-08T05:40:36.573Z,2044
2017-06-08T05:41:17.197Z,2132
2017-06-08T05:41:57.762Z,2236
2017-06-08T05:42:38.373Z,2364
2017-06-08T05:43:18.923Z,2484
2017-06-08T05:43:59.475Z,2572
2017-06-08T05:44:40.033Z,2600
2017-06-08T05:45:20.594Z,2552
2017-06-08T05:46:01.123Z,2448
2017-06-08T05:46:41.674Z,2308
2017-06-08T05:47:22.224Z,2152
2017-06-08T05:48:02.780Z,2012
2017-06-08T05:48:43.335Z,1932
2017-06-08T05:49:23.887Z,1920
2017-06-08T05:50:04.436Z,1976
2017-06-08T05:50:44.987Z,2076
2017-06-08T05:51:25.570Z,2188
2017-06-08T05:52:06.094Z,2332
2017-06-08T05:52:46.854Z,2608
2017-06-08T05:53:27.628Z,2976
2017-06-08T05:54:08.169Z,3416
2017-06-08T05:54:48.711Z,3768
2017-06-08T05:55:29.257Z,4052
2017-06-08T05:56:09.804Z,4396
2017-06-08T05:56:50.354Z,4768
2017-06-08T05:57:30.898Z,5136
2017-06-08T05:58:11.450Z,5452
2017-06-08T05:58:51.992Z,5632
2017-06-08T05:59:32.535Z,5664
2017-06-08T06:00:13.088Z,5708
2017-06-08T06:00:53.634Z,5644
2017-06-08T06:01:34.184Z,5556
2017-06-08T06:02:14.723Z,5424
2017-06-08T06:02:55.346Z,5308
2017-06-08T06:03:35.947Z,5252
2017-06-08T06:04:16.547Z,5232
2017-06-08T06:04:57.095Z,5200
2017-06-08T06:05:37.641Z,5164
2017-06-08T06:06:18.178Z,5072
2017-06-08T06:06:58.725Z,4860
2017-06-08T06:07:39.271Z,4432
2017-06-08T06:08:19.862Z,3992
2017-06-08T06:09:00.418Z,3612
2017-06-08T06:09:40.951Z,3364
2017-06-08T06:10:21.490Z,3240
2017-06-08T06:11:02.034Z,3100
2017-06-08T06:11:42.582Z,2964
2017-06-08T06:12:23.136Z,2792
2017-06-08T06:13:03.684Z,2680
2017-06-08T06:13:44.225Z,2648
2017-06-08T06:14:24.789Z,2704
2017-06-08T06:15:05.333Z,2772
2017-06-08T06:15:45.877Z,2812
2017-06-08T06:16:26.433Z,2884
2017-06-08T06:17:06.985Z,2984
2017-06-08T06:17:47.534Z,2888
2017-06-08T06:18:28.080Z,2612
2017-06-08T06:19:08.641Z,2376
2017-06-08T06:19:49.184Z,2292
2017-06-08T06:20:29.735Z,2256
2017-06-08T06:21:10.287Z,2248
2017-06-08T06:21:50.840Z,2336
2017-06-08T06:22:31.392Z,2468
2017-06-08T06:23:11.941Z,2592
2017-06-08T06:23:52.493Z,2736
2017-06-08T06:24:33.043Z,2904
2017-06-08T06:25:13.595Z,3064
2017-06-08T06:25:54.139Z,3164
2017-06-08T06:26:34.667Z,3284
2017-06-08T06:27:15.233Z,3516
2017-06-08T06:27:55.769Z,3648
2017-06-08T06:28:36.347Z,3516
2017-06-08T06:29:16.898Z,3332
2017-06-08T06:29:57.445Z,3264
2017-06-08T06:30:37.995Z,3364
2017-06-08T06:31:18.549Z,3308
2017-06-08T06:31:59.100Z,3100
2017-06-08T06:32:39.650Z,2948
2017-06-08T06:33:20.204Z,2964
2017-06-08T06:34:00.755Z,3044
2017-06-08T06:34:41.303Z,3148
2017-06-08T06:35:21.855Z,3308
2017-06-08T06:36:02.452Z,3440
2017-06-08T06:36:43.038Z,3472
2017-06-08T06:37:23.603Z,3500
2017-06-08T06:38:04.149Z,3608
2017-06-08T06:38:44.689Z,3784
2017-06-08T06:39:25.240Z,3972
2017-06-08T06:40:05.787Z,4208
2017-06-08T06:40:46.344Z,4448
2017-06-08T06:41:26.894Z,4596
2017-06-08T06:42:07.439Z,4688
2017-06-08T06:42:47.987Z,4860
2017-06-08T06:43:28.556Z,5024
2017-06-08T06:44:09.163Z,5064
2017-06-08T06:44:49.789Z,5124
2017-06-08T06:45:30.425Z,5412
2017-06-08T06:46:10.949Z,5800
2017-06-08T06:46:51.495Z,6276
2017-06-08T06:47:32.048Z,6664
2017-06-08T06:48:12.611Z,6768
2017-06-08T06:48:53.156Z,6520
2017-06-08T06:49:33.712Z,6060
2017-06-08T06:50:14.263Z,5500
2017-06-08T06:50:54.808Z,4940
2017-06-08T06:51:35.352Z,4416
2017-06-08T06:52:15.886Z,3972
2017-06-08T06:52:56.424Z,3664
2017-06-08T06:53:36.963Z,3496
2017-06-08T06:54:17.539Z,3316
2017-06-08T06:54:58.076Z,3112
2017-06-08T06:55:38.618Z,2936
2017-06-08T06:56:19.158Z,2852
2017-06-08T06:56:59.695Z,2844
2017-06-08T06:57:40.238Z,2876
2017-06-08T06:58:20.788Z,2896
2017-06-08T06:59:01.337Z,2860
2017-06-08T06:59:41.889Z,2936
2017-06-08T07:00:22.437Z,3256
2017-06-08T07:01:02.989Z,3672
2017-06-08T07:01:43.537Z,3916
2017-06-08T07:02:24.083Z,4124
2017-06-08T07:03:04.624Z,4412
2017-06-08T07:03:45.175Z,4704
2017-06-08T07:04:25.717Z,4928
2017-06-08T07:05:06.266Z,5148
2017-06-08T07:05:46.808Z,5376
2017-06-08T07:06:27.338Z,5676
2017-06-08T07:07:07.882Z,6012
2017-06-08T07:07:48.424Z,6200
2017-06-08T07:08:28.971Z,6332
2017-06-08T07:09:09.518Z,6200
2017-06-08T07:09:50.061Z,6140
2017-06-08T07:10:30.608Z,6204
2017-06-08T07:11:11.156Z,6484
2017-06-08T07:11:51.703Z,6936
2017-06-08T07:12:32.247Z,7288
2017-06-08T07:13:12.791Z,7376
2017-06-08T07:13:53.328Z,7264
2017-06-08T07:14:33.878Z,7204
2017-06-08T07:15:14.427Z,6884
2017-06-08T07:15:54.986Z,6772
2017-06-08T07:16:35.531Z,6468
2017-06-08T07:17:16.080Z,6084
2017-06-08T07:17:56.631Z,5884
2017-06-08T07:18:37.172Z,5980
2017-06-08T07:19:17.704Z,6220
2017-06-08T07:19:58.254Z,6536
2017-06-08T07:20:38.794Z,7308
2017-06-08T07:21:19.349Z,8032
2017-06-08T07:21:59.900Z,8552
2017-06-08T07:22:40.446Z,8984
2017-06-08T07:23:20.976Z,9356
2017-06-08T07:24:01.519Z,8724
2017-06-08T07:24:42.068Z,9000
2017-06-08T07:25:22.621Z,9632
2017-06-08T07:26:03.167Z,9280
2017-06-08T07:26:43.719Z,9732
2017-06-08T07:27:24.262Z,10024
2017-06-08T07:28:04.804Z,10676
2017-06-08T07:28:45.350Z,11200
2017-06-08T07:29:25.893Z,11192
2017-06-08T07:30:06.439Z,11056
2017-06-08T07:30:46.996Z,11016
2017-06-08T07:31:27.566Z,10752
2017-06-08T07:32:08.118Z,10632
2017-06-08T07:32:48.672Z,10352
2017-06-08T07:33:29.221Z,10732
2017-06-08T07:34:09.817Z,10696
2017-06-08T07:34:50.366Z,10816
2017-06-08T07:35:30.917Z,10384
2017-06-08T07:36:11.475Z,9676
2017-06-08T07:36:52.018Z,8932
2017-06-08T07:37:32.579Z,8660
2017-06-08T07:38:13.129Z,8396
2017-06-08T07:38:53.669Z,8608
2017-06-08T07:39:34.234Z,8704
2017-06-08T07:40:14.781Z,8500
2017-06-08T07:40:55.322Z,8560
2017-06-08T07:41:35.873Z,8648
2017-06-08T07:42:16.422Z,8464
2017-06-08T07:42:56.966Z,8080
2017-06-08T07:43:37.513Z,7964
2017-06-08T07:44:18.055Z,8076
2017-06-08T07:44:58.603Z,8180
2017-06-08T07:45:39.143Z,8308
2017-06-08T07:46:19.705Z,8580
2017-06-08T07:47:00.260Z,8576
2017-06-08T07:47:40.796Z,8660
2017-06-08T07:48:21.346Z,8668
2017-06-08T07:49:01.893Z,8796
2017-06-08T07:49:42.435Z,8788
2017-06-08T07:50:23.000Z,8768
2017-06-08T07:51:03.535Z,8664
2017-06-08T07:51:44.075Z,8428
2017-06-08T07:52:24.626Z,8304
2017-06-08T07:53:05.174Z,8544
2017-06-08T07:53:45.724Z,9080
2017-06-08T07:54:26.267Z,9716
2017-06-08T07:55:06.799Z,9860
2017-06-08T07:55:47.340Z,9912
2017-06-08T07:56:27.890Z,9932
2017-06-08T07:57:08.428Z,10324
2017-06-08T07:57:48.968Z,10180
2017-06-08T07:58:29.516Z,10556
2017-06-08T07:59:10.070Z,10220
2017-06-08T07:59:50.617Z,10976
2017-06-08T08:00:31.166Z,11364
2017-06-08T08:01:11.714Z,11860
2017-06-08T08:01:52.256Z,12252
2017-06-08T08:02:32.811Z,12680
2017-06-08T08:03:13.355Z,13028
2017-06-08T08:03:53.907Z,13240
2017-06-08T08:04:34.458Z,13792
2017-06-08T08:05:15.001Z,14220
2017-06-08T08:05:55.553Z,14884
2017-06-08T08:06:36.110Z,15760
2017-06-08T08:07:16.660Z,24160
2017-06-08T08:07:57.210Z,36704
2017-06-08T08:08:37.746Z,46272
2017-06-08T08:09:18.310Z,49920
2017-06-08T08:09:58.849Z,50016
2017-06-08T08:10:39.401Z,52864
2017-06-08T08:11:19.964Z,45728
2017-06-08T08:12:00.524Z,46784
2017-06-08T08:12:41.066Z,49920
2017-06-08T08:13:21.614Z,49888
2017-06-08T08:14:02.150Z,53152
2017-06-08T08:14:42.703Z,44512
2017-06-08T08:15:23.254Z,37952
2017-06-08T08:16:03.805Z,26432
2017-06-08T08:16:44.356Z,19168
2017-06-08T08:17:24.909Z,19360
2017-06-08T08:18:05.457Z,15208
2017-06-08T08:18:46.006Z,15200
2017-06-08T08:19:26.585Z,27520
2017-06-08T08:20:07.147Z,23168
2017-06-08T08:20:47.724Z,16388
2017-06-08T08:21:28.292Z,17664
2017-06-08T08:22:08.837Z,17312
2017-06-08T08:22:49.386Z,18336
2017-06-08T08:23:29.936Z,14976
2017-06-08T08:24:10.479Z,14032
2017-06-08T08:24:51.040Z,11984
2017-06-08T08:25:31.580Z,15512
2017-06-08T08:26:12.130Z,21696
2017-06-08T08:26:52.681Z,39552
2017-06-08T08:27:33.232Z,30688
2017-06-08T08:28:13.784Z,23360
2017-06-08T08:28:54.331Z,49952
2017-06-08T08:29:34.887Z,34400
2017-06-08T08:30:15.438Z,33216
2017-06-08T08:30:55.986Z,21728
2017-06-08T08:31:36.529Z,26848
2017-06-08T08:32:17.067Z,30784
2017-06-08T08:32:57.611Z,41088
2017-06-08T08:33:38.160Z,36864
2017-06-08T08:34:18.720Z,32864
2017-06-08T08:34:59.270Z,25952
2017-06-08T08:35:39.810Z,26848
2017-06-08T08:36:20.363Z,37920
2017-06-08T08:37:00.913Z,33952
2017-06-08T08:37:41.461Z,23168
2017-06-08T08:38:22.014Z,22144
2017-06-08T08:39:02.567Z,12924
2017-06-08T08:39:43.118Z,10284
2017-06-08T08:40:23.696Z,10608
2017-06-08T08:41:04.252Z,11672
2017-06-08T08:41:44.803Z,12356
2017-06-08T08:42:25.347Z,15444
2017-06-08T08:43:05.898Z,19296
2017-06-08T08:43:46.452Z,21792
2017-06-08T08:44:27.008Z,27104
2017-06-08T08:45:07.552Z,36320
2017-06-08T08:45:48.100Z,29728
2017-06-08T08:46:28.645Z,41088
2017-06-08T08:47:09.200Z,38336
2017-06-08T08:47:49.752Z,42528
2017-06-08T08:48:30.292Z,28448
2017-06-08T08:49:10.838Z,22144
2017-06-08T08:49:51.382Z,17024
2017-06-08T08:50:31.916Z,15924
2017-06-08T08:51:12.462Z,15708
2017-06-08T08:51:53.008Z,15820
2017-06-08T08:52:33.551Z,15112
2017-06-08T08:53:14.098Z,13540
2017-06-08T08:53:54.646Z,12652
2017-06-08T08:54:35.197Z,12972
2017-06-08T08:55:15.739Z,13716
2017-06-08T08:55:56.280Z,14212
2017-06-08T08:56:36.819Z,12496
2017-06-08T08:57:17.368Z,10772
2017-06-08T08:57:57.917Z,10556
2017-06-08T08:58:38.480Z,12512
2017-06-08T08:59:19.020Z,15812
2017-06-08T08:59:59.569Z,17344
2017-06-08T09:00:40.108Z,17024
2017-06-08T09:01:20.774Z,17600
2017-06-08T09:02:01.331Z,17312
2017-06-08T09:02:41.878Z,17376
2017-06-08T09:03:22.421Z,17696
2017-06-08T09:04:02.971Z,17152
2017-06-08T09:04:43.513Z,17408
2017-06-08T09:05:24.059Z,16268
2017-06-08T09:06:04.608Z,15460
2017-06-08T09:06:45.155Z,14700
2017-06-08T09:07:25.702Z,14716
2017-06-08T09:08:06.255Z,14888
2017-06-08T09:08:46.808Z,14676
2017-06-08T09:09:27.362Z,13776
2017-06-08T09:10:07.914Z,13080
2017-06-08T09:10:48.465Z,13516
2017-06-08T09:11:29.011Z,14552
2017-06-08T09:12:09.560Z,13972
2017-06-08T09:12:50.112Z,14568
2017-06-08T09:13:30.666Z,14844
2017-06-08T09:14:11.238Z,14344
2017-06-08T09:14:51.831Z,14940
2017-06-08T09:15:32.370Z,15240
2017-06-08T09:16:12.935Z,16104
2017-06-08T09:16:53.486Z,17472
2017-06-08T09:17:34.142Z,17696
2017-06-08T09:18:14.692Z,17472
2017-06-08T09:18:55.242Z,15180
2017-06-08T09:19:35.813Z,13844
2017-06-08T09:20:16.445Z,13264
2017-06-08T09:20:56.999Z,12404
2017-06-08T09:21:37.566Z,12476
2017-06-08T09:22:18.117Z,11544
2017-06-08T09:22:58.669Z,11460